Terminal Aerodrome Forecast
Issued by NWS

Home | Current Version | Previous Version | Text Only | Print | Product List | Glossary On
Versions: 1 2 3 4 5 6 7 8 9 10 11 12 13 14 15 16 17 18 19 20 21 22 23 24 25 26
451
FTUS46 KSEW 251738
TAFSEA
TAF
KSEA 251738Z 2518/2624 21021G28KT P6SM VCSH BKN014 OVC020
      TEMPO 2520/2523 27007KT -SHRA OVC014
     FM252300 22019G25KT P6SM VCSH SCT020 BKN035
     FM260200 22014KT P6SM SCT020 BKN040
     FM260400 19010KT P6SM BKN020
     FM260800 17006KT P6SM BKN020 OVC030
     FM261800 17005KT P6SM BKN015=

USA.gov is the U.S. government's official web portal to all federal, state and local government web resources and services.